sensor_id;sensor_type;location;lat;lon;timestamp;P1;durP1;ratioP1;P2;durP2;ratioP2
5040;SDS011;2539;52.568;13.364;2023-05-27T00:02:03;8.10;;;3.47;;
5040;SDS011;2539;52.568;13.364;2023-05-27T00:04:30;8.50;;;3.77;;
5040;SDS011;2539;52.568;13.364;2023-05-27T00:06:56;15.60;;;4.00;;
5040;SDS011;2539;52.568;13.364;2023-05-27T00:09:22;7.53;;;3.90;;
5040;SDS011;2539;52.568;13.364;2023-05-27T00:11:49;7.60;;;4.00;;
5040;SDS011;2539;52.568;13.364;2023-05-27T00:14:15;8.80;;;3.80;;
5040;SDS011;2539;52.568;13.364;2023-05-27T00:16:43;15.00;;;4.27;;
5040;SDS011;2539;52.568;13.364;2023-05-27T00:19:09;9.13;;;3.87;;
5040;SDS011;2539;52.568;13.364;2023-05-27T00:21:35;16.40;;;4.10;;
5040;SDS011;2539;52.568;13.364;2023-05-27T00:24:02;11.93;;;4.30;;
5040;SDS011;2539;52.568;13.364;2023-05-27T00:26:29;5.37;;;3.77;;
5040;SDS011;2539;52.568;13.364;2023-05-27T00:28:55;7.23;;;3.70;;
5040;SDS011;2539;52.568;13.364;2023-05-27T00:31:25;7.93;;;3.10;;
5040;SDS011;2539;52.568;13.364;2023-05-27T00:33:51;14.40;;;3.57;;
5040;SDS011;2539;52.568;13.364;2023-05-27T00:36:18;13.57;;;4.20;;
5040;SDS011;2539;52.568;13.364;2023-05-27T00:38:43;7.87;;;3.57;;
5040;SDS011;2539;52.568;13.364;2023-05-27T00:41:10;12.30;;;3.63;;
5040;SDS011;2539;52.568;13.364;2023-05-27T00:43:37;9.77;;;3.53;;
5040;SDS011;2539;52.568;13.364;2023-05-27T00:46:03;10.43;;;4.13;;
5040;SDS011;2539;52.568;13.364;2023-05-27T00:48:30;10.03;;;4.40;;
5040;SDS011;2539;52.568;13.364;2023-05-27T00:50:56;10.70;;;3.70;;
5040;SDS011;2539;52.568;13.364;2023-05-27T00:53:23;11.27;;;4.43;;
5040;SDS011;2539;52.568;13.364;2023-05-27T00:55:51;7.00;;;4.13;;
5040;SDS011;2539;52.568;13.364;2023-05-27T00:58:19;8.80;;;3.80;;
5040;SDS011;2539;52.568;13.364;2023-05-27T01:00:50;9.23;;;4.27;;
5040;SDS011;2539;52.568;13.364;2023-05-27T01:03:16;9.17;;;3.73;;
5040;SDS011;2539;52.568;13.364;2023-05-27T01:05:43;11.13;;;4.40;;
5040;SDS011;2539;52.568;13.364;2023-05-27T01:08:16;9.20;;;4.50;;
5040;SDS011;2539;52.568;13.364;2023-05-27T01:10:55;11.70;;;4.10;;
5040;SDS011;2539;52.568;13.364;2023-05-27T01:16:02;10.30;;;4.17;;
5040;SDS011;2539;52.568;13.364;2023-05-27T01:18:35;6.90;;;3.90;;
5040;SDS011;2539;52.568;13.364;2023-05-27T01:21:03;9.40;;;3.93;;
5040;SDS011;2539;52.568;13.364;2023-05-27T01:23:33;12.00;;;3.80;;
5040;SDS011;2539;52.568;13.364;2023-05-27T01:25:59;10.80;;;4.03;;
5040;SDS011;2539;52.568;13.364;2023-05-27T01:28:26;8.93;;;3.23;;
5040;SDS011;2539;52.568;13.364;2023-05-27T01:30:54;12.53;;;5.87;;
5040;SDS011;2539;52.568;13.364;2023-05-27T01:33:23;9.43;;;4.10;;
5040;SDS011;2539;52.568;13.364;2023-05-27T01:35:53;10.40;;;4.00;;
5040;SDS011;2539;52.568;13.364;2023-05-27T01:38:26;8.23;;;4.00;;
5040;SDS011;2539;52.568;13.364;2023-05-27T01:40:56;12.27;;;3.17;;
5040;SDS011;2539;52.568;13.364;2023-05-27T01:43:23;10.37;;;3.47;;
5040;SDS011;2539;52.568;13.364;2023-05-27T01:45:49;9.10;;;3.67;;
5040;SDS011;2539;52.568;13.364;2023-05-27T01:48:15;11.43;;;3.80;;
5040;SDS011;2539;52.568;13.364;2023-05-27T01:50:41;10.80;;;4.17;;
5040;SDS011;2539;52.568;13.364;2023-05-27T01:53:08;8.60;;;3.90;;
5040;SDS011;2539;52.568;13.364;2023-05-27T01:55:34;11.10;;;4.00;;
5040;SDS011;2539;52.568;13.364;2023-05-27T01:58:00;13.07;;;3.73;;
5040;SDS011;2539;52.568;13.364;2023-05-27T02:00:25;11.73;;;4.03;;
5040;SDS011;2539;52.568;13.364;2023-05-27T02:02:51;10.33;;;4.07;;
5040;SDS011;2539;52.568;13.364;2023-05-27T02:05:17;14.20;;;5.10;;
5040;SDS011;2539;52.568;13.364;2023-05-27T02:07:43;10.87;;;3.57;;
5040;SDS011;2539;52.568;13.364;2023-05-27T02:10:09;7.70;;;3.80;;
5040;SDS011;2539;52.568;13.364;2023-05-27T02:12:36;9.30;;;3.83;;
5040;SDS011;2539;52.568;13.364;2023-05-27T02:15:02;7.30;;;4.30;;
5040;SDS011;2539;52.568;13.364;2023-05-27T02:17:29;10.33;;;4.20;;
5040;SDS011;2539;52.568;13.364;2023-05-27T02:19:55;7.67;;;3.27;;
5040;SDS011;2539;52.568;13.364;2023-05-27T02:22:22;9.50;;;4.40;;
5040;SDS011;2539;52.568;13.364;2023-05-27T02:24:48;11.90;;;4.80;;
5040;SDS011;2539;52.568;13.364;2023-05-27T02:27:14;16.83;;;6.83;;
5040;SDS011;2539;52.568;13.364;2023-05-27T02:29:41;7.20;;;3.90;;
5040;SDS011;2539;52.568;13.364;2023-05-27T02:32:07;9.87;;;3.93;;
5040;SDS011;2539;52.568;13.364;2023-05-27T02:34:33;9.47;;;4.50;;
5040;SDS011;2539;52.568;13.364;2023-05-27T02:37:05;10.83;;;3.80;;
5040;SDS011;2539;52.568;13.364;2023-05-27T02:39:32;14.00;;;4.00;;
5040;SDS011;2539;52.568;13.364;2023-05-27T02:41:58;8.90;;;3.90;;
5040;SDS011;2539;52.568;13.364;2023-05-27T02:44:25;7.17;;;3.90;;
5040;SDS011;2539;52.568;13.364;2023-05-27T02:46:51;6.97;;;3.87;;
5040;SDS011;2539;52.568;13.364;2023-05-27T02:49:18;9.83;;;3.93;;
5040;SDS011;2539;52.568;13.364;2023-05-27T02:51:45;13.23;;;4.00;;
5040;SDS011;2539;52.568;13.364;2023-05-27T02:54:11;10.60;;;4.03;;
5040;SDS011;2539;52.568;13.364;2023-05-27T02:56:37;9.50;;;4.33;;
5040;SDS011;2539;52.568;13.364;2023-05-27T02:59:04;11.73;;;4.40;;
5040;SDS011;2539;52.568;13.364;2023-05-27T03:01:30;9.77;;;3.90;;
5040;SDS011;2539;52.568;13.364;2023-05-27T03:03:56;7.00;;;3.67;;
5040;SDS011;2539;52.568;13.364;2023-05-27T03:06:23;6.20;;;3.90;;
5040;SDS011;2539;52.568;13.364;2023-05-27T03:08:49;8.20;;;4.10;;
5040;SDS011;2539;52.568;13.364;2023-05-27T03:11:15;11.73;;;4.10;;
5040;SDS011;2539;52.568;13.364;2023-05-27T03:13:41;10.37;;;4.67;;
5040;SDS011;2539;52.568;13.364;2023-05-27T03:16:08;8.87;;;3.73;;
5040;SDS011;2539;52.568;13.364;2023-05-27T03:18:34;8.13;;;4.20;;
5040;SDS011;2539;52.568;13.364;2023-05-27T03:21:00;13.77;;;4.10;;
5040;SDS011;2539;52.568;13.364;2023-05-27T03:23:27;10.47;;;4.40;;
5040;SDS011;2539;52.568;13.364;2023-05-27T03:25:53;6.43;;;3.80;;
5040;SDS011;2539;52.568;13.364;2023-05-27T03:28:19;8.63;;;3.73;;
5040;SDS011;2539;52.568;13.364;2023-05-27T03:30:45;9.13;;;3.87;;
5040;SDS011;2539;52.568;13.364;2023-05-27T03:33:12;9.43;;;3.87;;
5040;SDS011;2539;52.568;13.364;2023-05-27T03:35:38;10.37;;;4.37;;
5040;SDS011;2539;52.568;13.364;2023-05-27T03:38:04;10.60;;;4.20;;
5040;SDS011;2539;52.568;13.364;2023-05-27T03:40:30;6.13;;;3.57;;
5040;SDS011;2539;52.568;13.364;2023-05-27T03:42:57;12.20;;;4.40;;
5040;SDS011;2539;52.568;13.364;2023-05-27T03:45:23;10.17;;;4.63;;
5040;SDS011;2539;52.568;13.364;2023-05-27T03:47:49;9.00;;;4.30;;
5040;SDS011;2539;52.568;13.364;2023-05-27T03:50:16;9.83;;;3.77;;
5040;SDS011;2539;52.568;13.364;2023-05-27T03:52:42;16.57;;;4.27;;
5040;SDS011;2539;52.568;13.364;2023-05-27T03:55:09;8.10;;;3.40;;
5040;SDS011;2539;52.568;13.364;2023-05-27T03:57:36;8.20;;;3.70;;
5040;SDS011;2539;52.568;13.364;2023-05-27T04:00:02;8.20;;;4.00;;
5040;SDS011;2539;52.568;13.364;2023-05-27T04:02:33;11.60;;;4.00;;
5040;SDS011;2539;52.568;13.364;2023-05-27T04:05:00;8.63;;;3.97;;
5040;SDS011;2539;52.568;13.364;2023-05-27T04:07:26;16.50;;;4.63;;
5040;SDS011;2539;52.568;13.364;2023-05-27T04:09:52;9.37;;;4.23;;
5040;SDS011;2539;52.568;13.364;2023-05-27T04:12:19;10.80;;;3.63;;
5040;SDS011;2539;52.568;13.364;2023-05-27T04:14:46;6.93;;;4.00;;
5040;SDS011;2539;52.568;13.364;2023-05-27T04:17:12;17.43;;;4.50;;
5040;SDS011;2539;52.568;13.364;2023-05-27T04:19:39;10.43;;;4.17;;
5040;SDS011;2539;52.568;13.364;2023-05-27T04:22:05;11.90;;;3.87;;
5040;SDS011;2539;52.568;13.364;2023-05-27T04:24:31;11.17;;;4.03;;
5040;SDS011;2539;52.568;13.364;2023-05-27T04:26:58;13.10;;;4.63;;
5040;SDS011;2539;52.568;13.364;2023-05-27T04:29:24;10.90;;;4.40;;
5040;SDS011;2539;52.568;13.364;2023-05-27T04:31:51;15.27;;;3.50;;
5040;SDS011;2539;52.568;13.364;2023-05-27T04:34:17;10.97;;;4.50;;
5040;SDS011;2539;52.568;13.364;2023-05-27T04:36:44;11.73;;;3.70;;
5040;SDS011;2539;52.568;13.364;2023-05-27T04:39:15;8.47;;;3.87;;
5040;SDS011;2539;52.568;13.364;2023-05-27T04:41:42;13.03;;;4.50;;
5040;SDS011;2539;52.568;13.364;2023-05-27T04:44:11;10.33;;;4.47;;
5040;SDS011;2539;52.568;13.364;2023-05-27T04:46:38;10.97;;;3.83;;
5040;SDS011;2539;52.568;13.364;2023-05-27T04:49:09;9.83;;;4.30;;
5040;SDS011;2539;52.568;13.364;2023-05-27T04:51:36;9.40;;;4.03;;
5040;SDS011;2539;52.568;13.364;2023-05-27T04:54:02;9.70;;;4.30;;
5040;SDS011;2539;52.568;13.364;2023-05-27T04:56:29;10.43;;;4.87;;
5040;SDS011;2539;52.568;13.364;2023-05-27T04:58:55;8.03;;;4.03;;
5040;SDS011;2539;52.568;13.364;2023-05-27T05:01:21;11.93;;;4.83;;
5040;SDS011;2539;52.568;13.364;2023-05-27T05:03:50;11.70;;;4.00;;
5040;SDS011;2539;52.568;13.364;2023-05-27T05:06:40;17.67;;;5.00;;
5040;SDS011;2539;52.568;13.364;2023-05-27T05:09:06;8.57;;;4.10;;
5040;SDS011;2539;52.568;13.364;2023-05-27T05:11:37;12.83;;;4.00;;
5040;SDS011;2539;52.568;13.364;2023-05-27T05:14:03;12.63;;;4.50;;
5040;SDS011;2539;52.568;13.364;2023-05-27T05:16:29;7.37;;;4.20;;
5040;SDS011;2539;52.568;13.364;2023-05-27T05:18:56;13.47;;;4.40;;
5040;SDS011;2539;52.568;13.364;2023-05-27T05:21:22;9.83;;;4.13;;
5040;SDS011;2539;52.568;13.364;2023-05-27T05:23:47;9.80;;;4.80;;
5040;SDS011;2539;52.568;13.364;2023-05-27T05:26:13;12.90;;;3.90;;
5040;SDS011;2539;52.568;13.364;2023-05-27T05:28:39;10.40;;;4.00;;
5040;SDS011;2539;52.568;13.364;2023-05-27T05:31:05;12.50;;;4.20;;
5040;SDS011;2539;52.568;13.364;2023-05-27T05:33:31;14.00;;;4.10;;
5040;SDS011;2539;52.568;13.364;2023-05-27T05:35:57;10.10;;;3.30;;
5040;SDS011;2539;52.568;13.364;2023-05-27T05:38:24;10.90;;;3.77;;
5040;SDS011;2539;52.568;13.364;2023-05-27T05:40:50;10.63;;;3.80;;
5040;SDS011;2539;52.568;13.364;2023-05-27T05:43:18;10.20;;;4.23;;
5040;SDS011;2539;52.568;13.364;2023-05-27T05:45:45;10.83;;;3.60;;
5040;SDS011;2539;52.568;13.364;2023-05-27T05:48:12;9.83;;;3.57;;
5040;SDS011;2539;52.568;13.364;2023-05-27T05:50:38;8.53;;;3.27;;
5040;SDS011;2539;52.568;13.364;2023-05-27T05:53:04;10.43;;;3.60;;
5040;SDS011;2539;52.568;13.364;2023-05-27T05:55:30;9.40;;;3.90;;
5040;SDS011;2539;52.568;13.364;2023-05-27T05:57:57;7.63;;;3.50;;
5040;SDS011;2539;52.568;13.364;2023-05-27T06:00:23;7.43;;;2.97;;
5040;SDS011;2539;52.568;13.364;2023-05-27T06:02:49;6.70;;;2.83;;
5040;SDS011;2539;52.568;13.364;2023-05-27T06:05:16;3.30;;;2.47;;
5040;SDS011;2539;52.568;13.364;2023-05-27T06:07:42;6.13;;;2.90;;
5040;SDS011;2539;52.568;13.364;2023-05-27T06:10:09;8.47;;;3.13;;
5040;SDS011;2539;52.568;13.364;2023-05-27T06:12:35;6.70;;;2.20;;
5040;SDS011;2539;52.568;13.364;2023-05-27T06:15:02;4.77;;;2.40;;
5040;SDS011;2539;52.568;13.364;2023-05-27T06:17:29;4.80;;;2.30;;
5040;SDS011;2539;52.568;13.364;2023-05-27T06:19:55;6.27;;;2.80;;
5040;SDS011;2539;52.568;13.364;2023-05-27T06:22:21;6.13;;;2.50;;
5040;SDS011;2539;52.568;13.364;2023-05-27T06:24:47;3.83;;;2.33;;
5040;SDS011;2539;52.568;13.364;2023-05-27T06:27:14;6.13;;;1.97;;
5040;SDS011;2539;52.568;13.364;2023-05-27T06:29:40;5.17;;;2.00;;
5040;SDS011;2539;52.568;13.364;2023-05-27T06:32:06;7.70;;;2.90;;
5040;SDS011;2539;52.568;13.364;2023-05-27T06:34:32;4.80;;;2.40;;
5040;SDS011;2539;52.568;13.364;2023-05-27T06:36:59;3.30;;;1.73;;
5040;SDS011;2539;52.568;13.364;2023-05-27T06:39:25;6.07;;;1.90;;
5040;SDS011;2539;52.568;13.364;2023-05-27T06:41:51;4.83;;;1.47;;
5040;SDS011;2539;52.568;13.364;2023-05-27T06:44:18;3.43;;;2.03;;
5040;SDS011;2539;52.568;13.364;2023-05-27T06:46:44;3.53;;;1.77;;
5040;SDS011;2539;52.568;13.364;2023-05-27T06:49:10;3.13;;;1.40;;
5040;SDS011;2539;52.568;13.364;2023-05-27T06:51:36;2.30;;;1.07;;
5040;SDS011;2539;52.568;13.364;2023-05-27T06:54:03;2.97;;;1.13;;
5040;SDS011;2539;52.568;13.364;2023-05-27T06:56:29;3.00;;;1.40;;
5040;SDS011;2539;52.568;13.364;2023-05-27T06:58:56;2.97;;;1.33;;
5040;SDS011;2539;52.568;13.364;2023-05-27T07:01:22;3.73;;;1.60;;
5040;SDS011;2539;52.568;13.364;2023-05-27T07:03:48;2.47;;;1.30;;
5040;SDS011;2539;52.568;13.364;2023-05-27T07:06:14;4.50;;;1.77;;
5040;SDS011;2539;52.568;13.364;2023-05-27T07:08:41;4.33;;;1.47;;
5040;SDS011;2539;52.568;13.364;2023-05-27T07:11:08;2.77;;;1.40;;
5040;SDS011;2539;52.568;13.364;2023-05-27T07:13:34;7.73;;;1.30;;
5040;SDS011;2539;52.568;13.364;2023-05-27T07:16:00;4.17;;;1.50;;
5040;SDS011;2539;52.568;13.364;2023-05-27T07:18:30;2.33;;;1.20;;
5040;SDS011;2539;52.568;13.364;2023-05-27T07:20:56;3.00;;;1.13;;
5040;SDS011;2539;52.568;13.364;2023-05-27T07:23:22;6.33;;;1.03;;
5040;SDS011;2539;52.568;13.364;2023-05-27T07:25:48;3.07;;;1.33;;
5040;SDS011;2539;52.568;13.364;2023-05-27T07:28:15;2.20;;;1.00;;
5040;SDS011;2539;52.568;13.364;2023-05-27T07:30:42;1.80;;;1.10;;
5040;SDS011;2539;52.568;13.364;2023-05-27T07:33:08;2.33;;;1.53;;
5040;SDS011;2539;52.568;13.364;2023-05-27T07:35:34;2.07;;;1.03;;
5040;SDS011;2539;52.568;13.364;2023-05-27T07:38:01;2.33;;;1.30;;
5040;SDS011;2539;52.568;13.364;2023-05-27T07:40:28;3.20;;;1.33;;
5040;SDS011;2539;52.568;13.364;2023-05-27T07:42:54;2.50;;;1.00;;
5040;SDS011;2539;52.568;13.364;2023-05-27T07:45:20;2.57;;;1.23;;
5040;SDS011;2539;52.568;13.364;2023-05-27T07:47:48;3.00;;;1.53;;
5040;SDS011;2539;52.568;13.364;2023-05-27T07:50:14;3.10;;;1.60;;
5040;SDS011;2539;52.568;13.364;2023-05-27T07:52:41;2.57;;;1.07;;
5040;SDS011;2539;52.568;13.364;2023-05-27T07:55:13;4.60;;;1.60;;
5040;SDS011;2539;52.568;13.364;2023-05-27T07:57:39;2.50;;;1.20;;
5040;SDS011;2539;52.568;13.364;2023-05-27T08:00:06;2.63;;;1.23;;
5040;SDS011;2539;52.568;13.364;2023-05-27T08:02:32;2.57;;;1.40;;
5040;SDS011;2539;52.568;13.364;2023-05-27T08:04:58;2.87;;;1.63;;
5040;SDS011;2539;52.568;13.364;2023-05-27T08:07:25;5.40;;;1.60;;
5040;SDS011;2539;52.568;13.364;2023-05-27T08:09:51;3.40;;;1.40;;
5040;SDS011;2539;52.568;13.364;2023-05-27T08:12:17;3.10;;;1.47;;
5040;SDS011;2539;52.568;13.364;2023-05-27T08:14:43;2.50;;;1.73;;
5040;SDS011;2539;52.568;13.364;2023-05-27T08:17:10;11.60;;;1.47;;
5040;SDS011;2539;52.568;13.364;2023-05-27T08:19:36;2.30;;;1.40;;
5040;SDS011;2539;52.568;13.364;2023-05-27T08:22:03;3.80;;;2.00;;
5040;SDS011;2539;52.568;13.364;2023-05-27T08:24:29;3.20;;;1.53;;
5040;SDS011;2539;52.568;13.364;2023-05-27T08:26:57;3.73;;;2.63;;
5040;SDS011;2539;52.568;13.364;2023-05-27T08:29:23;2.20;;;1.20;;
5040;SDS011;2539;52.568;13.364;2023-05-27T08:31:52;2.37;;;1.40;;
5040;SDS011;2539;52.568;13.364;2023-05-27T08:34:19;3.07;;;1.37;;
5040;SDS011;2539;52.568;13.364;2023-05-27T08:36:44;2.30;;;1.70;;
5040;SDS011;2539;52.568;13.364;2023-05-27T08:39:10;2.60;;;1.40;;
5040;SDS011;2539;52.568;13.364;2023-05-27T08:41:37;1.80;;;1.00;;
5040;SDS011;2539;52.568;13.364;2023-05-27T08:44:04;3.57;;;1.20;;
5040;SDS011;2539;52.568;13.364;2023-05-27T08:46:30;2.10;;;1.00;;
5040;SDS011;2539;52.568;13.364;2023-05-27T08:48:58;2.43;;;1.10;;
5040;SDS011;2539;52.568;13.364;2023-05-27T08:51:24;2.07;;;1.30;;
5040;SDS011;2539;52.568;13.364;2023-05-27T08:53:52;1.60;;;1.00;;
5040;SDS011;2539;52.568;13.364;2023-05-27T08:56:18;2.70;;;1.27;;
5040;SDS011;2539;52.568;13.364;2023-05-27T08:58:47;2.03;;;1.10;;
5040;SDS011;2539;52.568;13.364;2023-05-27T09:01:21;1.80;;;1.07;;
5040;SDS011;2539;52.568;13.364;2023-05-27T09:03:48;2.70;;;1.30;;
5040;SDS011;2539;52.568;13.364;2023-05-27T09:06:14;3.50;;;1.60;;
5040;SDS011;2539;52.568;13.364;2023-05-27T09:08:40;1.73;;;1.00;;
5040;SDS011;2539;52.568;13.364;2023-05-27T09:11:05;1.60;;;0.90;;
5040;SDS011;2539;52.568;13.364;2023-05-27T09:13:33;2.17;;;0.90;;
5040;SDS011;2539;52.568;13.364;2023-05-27T09:16:03;2.07;;;1.30;;
5040;SDS011;2539;52.568;13.364;2023-05-27T09:18:31;2.60;;;1.20;;
5040;SDS011;2539;52.568;13.364;2023-05-27T09:20:59;2.43;;;1.60;;
5040;SDS011;2539;52.568;13.364;2023-05-27T09:23:25;2.63;;;1.30;;
5040;SDS011;2539;52.568;13.364;2023-05-27T09:25:52;2.30;;;1.50;;
5040;SDS011;2539;52.568;13.364;2023-05-27T09:28:25;2.43;;;1.40;;
5040;SDS011;2539;52.568;13.364;2023-05-27T09:30:58;5.13;;;1.60;;
5040;SDS011;2539;52.568;13.364;2023-05-27T09:33:31;2.43;;;1.30;;
5040;SDS011;2539;52.568;13.364;2023-05-27T09:36:01;2.00;;;1.30;;
5040;SDS011;2539;52.568;13.364;2023-05-27T09:38:35;5.00;;;1.30;;
5040;SDS011;2539;52.568;13.364;2023-05-27T09:41:03;2.30;;;1.20;;
5040;SDS011;2539;52.568;13.364;2023-05-27T09:43:29;2.37;;;1.30;;
5040;SDS011;2539;52.568;13.364;2023-05-27T09:46:00;1.73;;;1.13;;
5040;SDS011;2539;52.568;13.364;2023-05-27T09:48:34;2.00;;;1.10;;
5040;SDS011;2539;52.568;13.364;2023-05-27T09:51:02;4.23;;;1.30;;
5040;SDS011;2539;52.568;13.364;2023-05-27T09:53:29;2.40;;;1.37;;
5040;SDS011;2539;52.568;13.364;2023-05-27T09:55:56;2.07;;;1.27;;
5040;SDS011;2539;52.568;13.364;2023-05-27T09:58:23;1.90;;;1.27;;
5040;SDS011;2539;52.568;13.364;2023-05-27T10:00:50;1.87;;;1.30;;
5040;SDS011;2539;52.568;13.364;2023-05-27T10:03:21;2.57;;;1.40;;
5040;SDS011;2539;52.568;13.364;2023-05-27T10:05:50;2.03;;;1.40;;
5040;SDS011;2539;52.568;13.364;2023-05-27T10:08:17;2.07;;;1.00;;
5040;SDS011;2539;52.568;13.364;2023-05-27T10:10:44;1.90;;;1.10;;
5040;SDS011;2539;52.568;13.364;2023-05-27T10:13:13;6.63;;;1.40;;
5040;SDS011;2539;52.568;13.364;2023-05-27T10:15:45;2.53;;;1.17;;
5040;SDS011;2539;52.568;13.364;2023-05-27T10:18:21;3.47;;;1.40;;
5040;SDS011;2539;52.568;13.364;2023-05-27T10:20:56;2.37;;;1.20;;
5040;SDS011;2539;52.568;13.364;2023-05-27T10:23:27;2.30;;;1.30;;
5040;SDS011;2539;52.568;13.364;2023-05-27T10:25:56;2.57;;;1.50;;
5040;SDS011;2539;52.568;13.364;2023-05-27T10:28:36;2.00;;;1.27;;
5040;SDS011;2539;52.568;13.364;2023-05-27T10:31:06;2.70;;;1.20;;
5040;SDS011;2539;52.568;13.364;2023-05-27T10:33:35;3.13;;;1.27;;
5040;SDS011;2539;52.568;13.364;2023-05-27T10:36:04;2.57;;;1.60;;
5040;SDS011;2539;52.568;13.364;2023-05-27T10:38:30;2.30;;;1.60;;
5040;SDS011;2539;52.568;13.364;2023-05-27T10:41:00;2.70;;;1.73;;
5040;SDS011;2539;52.568;13.364;2023-05-27T10:43:28;3.57;;;1.63;;
5040;SDS011;2539;52.568;13.364;2023-05-27T10:46:02;3.23;;;1.33;;
5040;SDS011;2539;52.568;13.364;2023-05-27T10:48:37;2.30;;;1.30;;
5040;SDS011;2539;52.568;13.364;2023-05-27T10:51:05;3.23;;;1.73;;
5040;SDS011;2539;52.568;13.364;2023-05-27T10:53:36;2.87;;;1.90;;
5040;SDS011;2539;52.568;13.364;2023-05-27T10:56:03;8.07;;;5.20;;
5040;SDS011;2539;52.568;13.364;2023-05-27T10:58:34;3.67;;;1.93;;
5040;SDS011;2539;52.568;13.364;2023-05-27T11:01:11;2.90;;;1.90;;
5040;SDS011;2539;52.568;13.364;2023-05-27T11:03:43;6.27;;;4.17;;
5040;SDS011;2539;52.568;13.364;2023-05-27T11:06:11;2.67;;;1.60;;
5040;SDS011;2539;52.568;13.364;2023-05-27T11:08:38;3.53;;;1.80;;
5040;SDS011;2539;52.568;13.364;2023-05-27T11:11:05;2.37;;;1.43;;
5040;SDS011;2539;52.568;13.364;2023-05-27T11:13:34;10.90;;;2.00;;
5040;SDS011;2539;52.568;13.364;2023-05-27T11:16:04;2.60;;;1.40;;
5040;SDS011;2539;52.568;13.364;2023-05-27T11:18:41;2.30;;;1.57;;
5040;SDS011;2539;52.568;13.364;2023-05-27T11:21:09;2.37;;;1.40;;
5040;SDS011;2539;52.568;13.364;2023-05-27T11:23:37;2.57;;;1.30;;
5040;SDS011;2539;52.568;13.364;2023-05-27T11:26:14;2.50;;;1.67;;
5040;SDS011;2539;52.568;13.364;2023-05-27T11:28:57;2.87;;;1.90;;
5040;SDS011;2539;52.568;13.364;2023-05-27T11:31:27;4.03;;;1.53;;
5040;SDS011;2539;52.568;13.364;2023-05-27T11:33:55;3.27;;;1.50;;
5040;SDS011;2539;52.568;13.364;2023-05-27T11:36:25;2.90;;;1.70;;
5040;SDS011;2539;52.568;13.364;2023-05-27T11:38:53;3.73;;;1.83;;
5040;SDS011;2539;52.568;13.364;2023-05-27T11:41:22;4.30;;;1.63;;
5040;SDS011;2539;52.568;13.364;2023-05-27T11:43:57;2.53;;;1.73;;
5040;SDS011;2539;52.568;13.364;2023-05-27T11:46:44;5.23;;;2.27;;
5040;SDS011;2539;52.568;13.364;2023-05-27T11:49:12;2.90;;;1.53;;
5040;SDS011;2539;52.568;13.364;2023-05-27T11:51:40;2.13;;;1.53;;
5040;SDS011;2539;52.568;13.364;2023-05-27T11:54:18;2.03;;;1.47;;
5040;SDS011;2539;52.568;13.364;2023-05-27T11:56:51;1.80;;;1.13;;
5040;SDS011;2539;52.568;13.364;2023-05-27T11:59:19;2.40;;;1.60;;
5040;SDS011;2539;52.568;13.364;2023-05-27T12:01:47;2.00;;;1.37;;
5040;SDS011;2539;52.568;13.364;2023-05-27T12:04:14;4.47;;;1.50;;
5040;SDS011;2539;52.568;13.364;2023-05-27T12:06:40;5.03;;;1.73;;
5040;SDS011;2539;52.568;13.364;2023-05-27T12:09:08;2.60;;;1.33;;
5040;SDS011;2539;52.568;13.364;2023-05-27T12:11:35;2.77;;;2.20;;
5040;SDS011;2539;52.568;13.364;2023-05-27T12:14:01;7.60;;;2.37;;
5040;SDS011;2539;52.568;13.364;2023-05-27T12:16:28;2.37;;;1.70;;
5040;SDS011;2539;52.568;13.364;2023-05-27T12:18:53;2.87;;;1.97;;
5040;SDS011;2539;52.568;13.364;2023-05-27T12:21:20;2.73;;;1.90;;
5040;SDS011;2539;52.568;13.364;2023-05-27T12:23:46;4.97;;;1.50;;
5040;SDS011;2539;52.568;13.364;2023-05-27T12:26:13;5.43;;;1.60;;
5040;SDS011;2539;52.568;13.364;2023-05-27T12:28:40;2.43;;;1.60;;
5040;SDS011;2539;52.568;13.364;2023-05-27T12:31:07;3.80;;;1.50;;
5040;SDS011;2539;52.568;13.364;2023-05-27T12:33:33;4.03;;;1.80;;
5040;SDS011;2539;52.568;13.364;2023-05-27T12:36:00;2.20;;;1.50;;
5040;SDS011;2539;52.568;13.364;2023-05-27T12:38:27;2.20;;;1.53;;
5040;SDS011;2539;52.568;13.364;2023-05-27T12:40:53;3.10;;;1.93;;
5040;SDS011;2539;52.568;13.364;2023-05-27T12:43:21;4.40;;;1.83;;
5040;SDS011;2539;52.568;13.364;2023-05-27T12:45:47;2.90;;;1.97;;
5040;SDS011;2539;52.568;13.364;2023-05-27T12:48:14;2.20;;;1.40;;
5040;SDS011;2539;52.568;13.364;2023-05-27T12:50:40;3.00;;;1.40;;
5040;SDS011;2539;52.568;13.364;2023-05-27T12:53:07;4.70;;;2.80;;
5040;SDS011;2539;52.568;13.364;2023-05-27T12:55:34;3.97;;;2.10;;
5040;SDS011;2539;52.568;13.364;2023-05-27T12:58:04;4.00;;;3.17;;
5040;SDS011;2539;52.568;13.364;2023-05-27T13:00:30;3.43;;;2.20;;
5040;SDS011;2539;52.568;13.364;2023-05-27T13:02:58;2.80;;;2.00;;
5040;SDS011;2539;52.568;13.364;2023-05-27T13:05:24;2.33;;;1.70;;
5040;SDS011;2539;52.568;13.364;2023-05-27T13:07:54;3.23;;;1.50;;
5040;SDS011;2539;52.568;13.364;2023-05-27T13:10:27;4.43;;;3.50;;
5040;SDS011;2539;52.568;13.364;2023-05-27T13:12:55;3.47;;;1.60;;
5040;SDS011;2539;52.568;13.364;2023-05-27T13:15:22;3.40;;;2.10;;
5040;SDS011;2539;52.568;13.364;2023-05-27T13:17:50;3.00;;;1.70;;
5040;SDS011;2539;52.568;13.364;2023-05-27T13:20:17;2.70;;;2.10;;
5040;SDS011;2539;52.568;13.364;2023-05-27T13:22:44;2.63;;;1.70;;
5040;SDS011;2539;52.568;13.364;2023-05-27T13:25:12;2.57;;;1.43;;
5040;SDS011;2539;52.568;13.364;2023-05-27T13:27:39;2.53;;;1.60;;
5040;SDS011;2539;52.568;13.364;2023-05-27T13:30:11;3.60;;;2.00;;
5040;SDS011;2539;52.568;13.364;2023-05-27T13:32:38;3.33;;;1.50;;
5040;SDS011;2539;52.568;13.364;2023-05-27T13:35:04;3.67;;;1.50;;
5040;SDS011;2539;52.568;13.364;2023-05-27T13:37:31;2.00;;;1.33;;
5040;SDS011;2539;52.568;13.364;2023-05-27T13:39:57;5.43;;;1.73;;
5040;SDS011;2539;52.568;13.364;2023-05-27T13:42:24;4.47;;;2.17;;
5040;SDS011;2539;52.568;13.364;2023-05-27T13:44:50;2.67;;;1.73;;
5040;SDS011;2539;52.568;13.364;2023-05-27T13:47:16;2.53;;;1.67;;
5040;SDS011;2539;52.568;13.364;2023-05-27T13:49:43;3.80;;;1.70;;
5040;SDS011;2539;52.568;13.364;2023-05-27T13:52:09;2.50;;;1.53;;
5040;SDS011;2539;52.568;13.364;2023-05-27T13:54:35;13.10;;;8.40;;
5040;SDS011;2539;52.568;13.364;2023-05-27T13:57:01;2.83;;;1.40;;
5040;SDS011;2539;52.568;13.364;2023-05-27T13:59:28;4.07;;;1.87;;
5040;SDS011;2539;52.568;13.364;2023-05-27T14:01:54;4.00;;;2.50;;
5040;SDS011;2539;52.568;13.364;2023-05-27T14:04:20;2.83;;;1.40;;
5040;SDS011;2539;52.568;13.364;2023-05-27T14:06:47;2.13;;;1.30;;
5040;SDS011;2539;52.568;13.364;2023-05-27T14:09:13;3.43;;;1.30;;
5040;SDS011;2539;52.568;13.364;2023-05-27T14:11:40;3.00;;;1.70;;
5040;SDS011;2539;52.568;13.364;2023-05-27T14:14:06;2.20;;;1.47;;
5040;SDS011;2539;52.568;13.364;2023-05-27T14:16:32;2.20;;;1.43;;
5040;SDS011;2539;52.568;13.364;2023-05-27T14:18:59;3.90;;;1.90;;
5040;SDS011;2539;52.568;13.364;2023-05-27T14:21:25;2.20;;;1.40;;
5040;SDS011;2539;52.568;13.364;2023-05-27T14:23:51;2.50;;;1.70;;
5040;SDS011;2539;52.568;13.364;2023-05-27T14:26:18;2.40;;;1.40;;
5040;SDS011;2539;52.568;13.364;2023-05-27T14:28:44;3.90;;;2.17;;
5040;SDS011;2539;52.568;13.364;2023-05-27T14:31:10;3.30;;;1.13;;
5040;SDS011;2539;52.568;13.364;2023-05-27T14:33:36;3.30;;;1.27;;
5040;SDS011;2539;52.568;13.364;2023-05-27T14:36:03;2.30;;;1.30;;
5040;SDS011;2539;52.568;13.364;2023-05-27T14:38:29;2.05;;;1.35;;
5040;SDS011;2539;52.568;13.364;2023-05-27T14:40:55;3.90;;;2.10;;
5040;SDS011;2539;52.568;13.364;2023-05-27T14:43:22;4.13;;;1.45;;
5040;SDS011;2539;52.568;13.364;2023-05-27T14:45:48;3.13;;;1.48;;
5040;SDS011;2539;52.568;13.364;2023-05-27T14:48:14;2.88;;;1.48;;
5040;SDS011;2539;52.568;13.364;2023-05-27T14:50:40;2.30;;;1.70;;
5040;SDS011;2539;52.568;13.364;2023-05-27T14:53:07;2.33;;;1.35;;
5040;SDS011;2539;52.568;13.364;2023-05-27T14:55:33;4.97;;;1.65;;
5040;SDS011;2539;52.568;13.364;2023-05-27T14:58:01;3.38;;;1.35;;
5040;SDS011;2539;52.568;13.364;2023-05-27T15:00:31;2.17;;;1.15;;
5040;SDS011;2539;52.568;13.364;2023-05-27T15:02:57;2.67;;;1.33;;